sensor_id;sensor_type;location;lat;lon;timestamp;temperature;humidity
23083;DHT22;11709;52.420;10.538;2023-03-09T00:01:00;1.00;99.90
23083;DHT22;11709;52.420;10.538;2023-03-09T00:05:02;1.00;99.90
23083;DHT22;11709;52.420;10.538;2023-03-09T00:09:05;1.00;99.90
23083;DHT22;11709;52.420;10.538;2023-03-09T00:13:07;1.00;99.90
23083;DHT22;11709;52.420;10.538;2023-03-09T00:17:08;1.00;99.90
23083;DHT22;11709;52.420;10.538;2023-03-09T00:21:10;1.00;99.90
23083;DHT22;11709;52.420;10.538;2023-03-09T00:25:21;1.00;99.90
23083;DHT22;11709;52.420;10.538;2023-03-09T00:29:24;1.00;99.90
23083;DHT22;11709;52.420;10.538;2023-03-09T00:33:26;1.00;99.90
23083;DHT22;11709;52.420;10.538;2023-03-09T00:37:28;1.00;99.90
23083;DHT22;11709;52.420;10.538;2023-03-09T00:41:30;1.00;99.90
23083;DHT22;11709;52.420;10.538;2023-03-09T00:45:32;1.00;99.90
23083;DHT22;11709;52.420;10.538;2023-03-09T00:49:34;1.00;99.90
23083;DHT22;11709;52.420;10.538;2023-03-09T00:53:36;1.00;99.90
23083;DHT22;11709;52.420;10.538;2023-03-09T00:57:38;1.00;99.90
23083;DHT22;11709;52.420;10.538;2023-03-09T01:01:40;1.00;99.90
23083;DHT22;11709;52.420;10.538;2023-03-09T01:05:41;0.90;99.90
23083;DHT22;11709;52.420;10.538;2023-03-09T01:09:43;0.90;99.90
23083;DHT22;11709;52.420;10.538;2023-03-09T01:13:45;0.90;99.90
23083;DHT22;11709;52.420;10.538;2023-03-09T01:17:47;0.90;99.90
23083;DHT22;11709;52.420;10.538;2023-03-09T01:21:49;0.90;99.90
23083;DHT22;11709;52.420;10.538;2023-03-09T01:25:51;0.90;99.90
23083;DHT22;11709;52.420;10.538;2023-03-09T01:29:53;0.80;99.90
23083;DHT22;11709;52.420;10.538;2023-03-09T01:38:15;0.80;99.90
23083;DHT22;11709;52.420;10.538;2023-03-09T01:42:17;0.70;99.90
23083;DHT22;11709;52.420;10.538;2023-03-09T01:50:27;0.70;99.90
23083;DHT22;11709;52.420;10.538;2023-03-09T01:54:31;0.80;99.90
23083;DHT22;11709;52.420;10.538;2023-03-09T01:58:32;0.70;99.90
23083;DHT22;11709;52.420;10.538;2023-03-09T02:02:35;0.70;99.90
23083;DHT22;11709;52.420;10.538;2023-03-09T02:06:38;0.70;99.90
23083;DHT22;11709;52.420;10.538;2023-03-09T02:10:45;0.70;99.90
23083;DHT22;11709;52.420;10.538;2023-03-09T02:14:46;0.80;99.90
23083;DHT22;11709;52.420;10.538;2023-03-09T02:18:48;0.70;99.90
23083;DHT22;11709;52.420;10.538;2023-03-09T02:22:50;0.70;99.90
23083;DHT22;11709;52.420;10.538;2023-03-09T02:27:09;0.80;99.90
23083;DHT22;11709;52.420;10.538;2023-03-09T02:31:04;0.80;99.90
23083;DHT22;11709;52.420;10.538;2023-03-09T02:35:06;0.80;99.90
23083;DHT22;11709;52.420;10.538;2023-03-09T02:39:16;0.80;99.90
23083;DHT22;11709;52.420;10.538;2023-03-09T02:43:13;0.80;99.90
23083;DHT22;11709;52.420;10.538;2023-03-09T02:47:18;0.70;99.90
23083;DHT22;11709;52.420;10.538;2023-03-09T02:51:20;0.70;99.90
23083;DHT22;11709;52.420;10.538;2023-03-09T02:55:22;0.70;99.90
23083;DHT22;11709;52.420;10.538;2023-03-09T02:59:23;0.80;99.90
23083;DHT22;11709;52.420;10.538;2023-03-09T03:03:25;0.80;99.90
23083;DHT22;11709;52.420;10.538;2023-03-09T03:07:27;0.80;99.90
23083;DHT22;11709;52.420;10.538;2023-03-09T03:11:29;2.40;99.90
23083;DHT22;11709;52.420;10.538;2023-03-09T03:15:31;0.80;99.90
23083;DHT22;11709;52.420;10.538;2023-03-09T03:19:32;0.80;99.90
23083;DHT22;11709;52.420;10.538;2023-03-09T03:23:34;0.80;99.90
23083;DHT22;11709;52.420;10.538;2023-03-09T03:27:36;0.80;99.90
23083;DHT22;11709;52.420;10.538;2023-03-09T03:31:38;0.80;99.90
23083;DHT22;11709;52.420;10.538;2023-03-09T03:35:39;0.80;99.90
23083;DHT22;11709;52.420;10.538;2023-03-09T03:39:41;0.80;99.90
23083;DHT22;11709;52.420;10.538;2023-03-09T03:43:43;0.80;99.90
23083;DHT22;11709;52.420;10.538;2023-03-09T03:47:45;0.80;99.90
23083;DHT22;11709;52.420;10.538;2023-03-09T03:51:47;0.80;99.90
23083;DHT22;11709;52.420;10.538;2023-03-09T03:55:49;0.80;99.90
23083;DHT22;11709;52.420;10.538;2023-03-09T03:59:50;0.80;99.90
23083;DHT22;11709;52.420;10.538;2023-03-09T04:03:52;0.80;99.90
23083;DHT22;11709;52.420;10.538;2023-03-09T04:07:54;0.80;99.90
23083;DHT22;11709;52.420;10.538;2023-03-09T04:11:56;0.90;99.90
23083;DHT22;11709;52.420;10.538;2023-03-09T04:15:58;0.90;99.90
23083;DHT22;11709;52.420;10.538;2023-03-09T04:19:59;0.80;99.90
23083;DHT22;11709;52.420;10.538;2023-03-09T04:24:01;0.90;99.90
23083;DHT22;11709;52.420;10.538;2023-03-09T04:28:03;0.90;99.90
23083;DHT22;11709;52.420;10.538;2023-03-09T04:32:05;0.90;99.90
23083;DHT22;11709;52.420;10.538;2023-03-09T04:36:07;0.80;99.90
23083;DHT22;11709;52.420;10.538;2023-03-09T04:40:09;0.90;99.90
23083;DHT22;11709;52.420;10.538;2023-03-09T04:44:11;0.90;99.90
23083;DHT22;11709;52.420;10.538;2023-03-09T04:48:13;0.90;99.90
23083;DHT22;11709;52.420;10.538;2023-03-09T04:52:15;0.90;99.90
23083;DHT22;11709;52.420;10.538;2023-03-09T04:56:17;0.90;99.90
23083;DHT22;11709;52.420;10.538;2023-03-09T05:00:19;0.90;99.90
23083;DHT22;11709;52.420;10.538;2023-03-09T05:04:20;0.90;99.90
23083;DHT22;11709;52.420;10.538;2023-03-09T05:08:22;0.90;99.90
23083;DHT22;11709;52.420;10.538;2023-03-09T05:12:24;1.00;99.90
23083;DHT22;11709;52.420;10.538;2023-03-09T05:16:28;1.00;99.90
23083;DHT22;11709;52.420;10.538;2023-03-09T05:20:29;1.00;99.90
23083;DHT22;11709;52.420;10.538;2023-03-09T05:24:32;0.90;99.90
23083;DHT22;11709;52.420;10.538;2023-03-09T05:28:34;1.00;99.90
23083;DHT22;11709;52.420;10.538;2023-03-09T05:32:36;1.00;99.90
23083;DHT22;11709;52.420;10.538;2023-03-09T05:36:38;1.00;99.90
23083;DHT22;11709;52.420;10.538;2023-03-09T05:40:40;1.00;99.90
23083;DHT22;11709;52.420;10.538;2023-03-09T05:44:42;1.00;99.90
23083;DHT22;11709;52.420;10.538;2023-03-09T05:48:45;1.10;99.90
23083;DHT22;11709;52.420;10.538;2023-03-09T05:52:47;1.10;99.90
23083;DHT22;11709;52.420;10.538;2023-03-09T05:56:52;1.00;99.90
23083;DHT22;11709;52.420;10.538;2023-03-09T06:00:52;1.10;99.90
23083;DHT22;11709;52.420;10.538;2023-03-09T06:04:54;1.00;99.90
23083;DHT22;11709;52.420;10.538;2023-03-09T06:08:56;1.00;99.90
23083;DHT22;11709;52.420;10.538;2023-03-09T06:12:58;1.00;99.90
23083;DHT22;11709;52.420;10.538;2023-03-09T06:17:00;1.00;99.90
23083;DHT22;11709;52.420;10.538;2023-03-09T06:21:03;1.10;99.90
23083;DHT22;11709;52.420;10.538;2023-03-09T06:25:05;1.10;99.90
23083;DHT22;11709;52.420;10.538;2023-03-09T06:29:07;1.10;99.90
23083;DHT22;11709;52.420;10.538;2023-03-09T06:33:09;1.10;99.90
23083;DHT22;11709;52.420;10.538;2023-03-09T06:37:11;1.20;99.90
23083;DHT22;11709;52.420;10.538;2023-03-09T06:41:13;1.10;99.90
23083;DHT22;11709;52.420;10.538;2023-03-09T06:45:16;1.10;99.90
23083;DHT22;11709;52.420;10.538;2023-03-09T06:49:18;1.10;99.90
23083;DHT22;11709;52.420;10.538;2023-03-09T06:53:20;1.10;99.90
23083;DHT22;11709;52.420;10.538;2023-03-09T06:57:22;1.20;99.90
23083;DHT22;11709;52.420;10.538;2023-03-09T07:01:23;1.20;99.90
23083;DHT22;11709;52.420;10.538;2023-03-09T07:05:25;1.30;99.90
23083;DHT22;11709;52.420;10.538;2023-03-09T07:09:27;1.30;99.90
23083;DHT22;11709;52.420;10.538;2023-03-09T07:13:31;1.30;99.90
23083;DHT22;11709;52.420;10.538;2023-03-09T07:17:33;1.30;99.90
23083;DHT22;11709;52.420;10.538;2023-03-09T07:21:35;1.20;99.90
23083;DHT22;11709;52.420;10.538;2023-03-09T07:25:37;1.30;99.90
23083;DHT22;11709;52.420;10.538;2023-03-09T07:29:39;1.30;99.90
23083;DHT22;11709;52.420;10.538;2023-03-09T07:33:41;1.40;99.90
23083;DHT22;11709;52.420;10.538;2023-03-09T07:37:43;1.40;99.90
23083;DHT22;11709;52.420;10.538;2023-03-09T07:41:45;1.50;99.90
23083;DHT22;11709;52.420;10.538;2023-03-09T07:45:47;1.40;99.90
23083;DHT22;11709;52.420;10.538;2023-03-09T07:49:49;1.50;99.90
23083;DHT22;11709;52.420;10.538;2023-03-09T07:53:51;1.50;99.90
23083;DHT22;11709;52.420;10.538;2023-03-09T07:57:53;1.60;99.90
23083;DHT22;11709;52.420;10.538;2023-03-09T08:01:54;1.60;99.90
23083;DHT22;11709;52.420;10.538;2023-03-09T08:05:56;1.60;99.90
23083;DHT22;11709;52.420;10.538;2023-03-09T08:09:59;1.60;99.90
23083;DHT22;11709;52.420;10.538;2023-03-09T08:14:00;1.70;99.90
23083;DHT22;11709;52.420;10.538;2023-03-09T08:18:02;1.60;99.90
23083;DHT22;11709;52.420;10.538;2023-03-09T08:22:04;1.70;99.90
23083;DHT22;11709;52.420;10.538;2023-03-09T08:26:06;1.70;99.90
23083;DHT22;11709;52.420;10.538;2023-03-09T08:30:09;1.70;99.90
23083;DHT22;11709;52.420;10.538;2023-03-09T08:34:11;1.80;99.90
23083;DHT22;11709;52.420;10.538;2023-03-09T08:38:13;1.80;99.90
23083;DHT22;11709;52.420;10.538;2023-03-09T08:42:14;1.70;99.90
23083;DHT22;11709;52.420;10.538;2023-03-09T08:46:16;1.70;99.90
23083;DHT22;11709;52.420;10.538;2023-03-09T08:50:18;1.80;99.90
23083;DHT22;11709;52.420;10.538;2023-03-09T08:54:20;1.80;99.90
23083;DHT22;11709;52.420;10.538;2023-03-09T08:58:22;1.90;99.90
23083;DHT22;11709;52.420;10.538;2023-03-09T09:02:24;1.90;99.90
23083;DHT22;11709;52.420;10.538;2023-03-09T09:06:25;1.80;99.90
23083;DHT22;11709;52.420;10.538;2023-03-09T09:10:29;1.80;99.90
23083;DHT22;11709;52.420;10.538;2023-03-09T09:14:31;1.80;99.90
23083;DHT22;11709;52.420;10.538;2023-03-09T09:18:33;1.90;99.90
23083;DHT22;11709;52.420;10.538;2023-03-09T09:22:39;1.90;99.90
23083;DHT22;11709;52.420;10.538;2023-03-09T09:26:40;2.00;99.90
23083;DHT22;11709;52.420;10.538;2023-03-09T09:30:42;2.10;99.90
23083;DHT22;11709;52.420;10.538;2023-03-09T09:34:44;2.10;99.90
23083;DHT22;11709;52.420;10.538;2023-03-09T09:38:47;2.10;99.90
23083;DHT22;11709;52.420;10.538;2023-03-09T09:42:49;2.20;99.90
23083;DHT22;11709;52.420;10.538;2023-03-09T09:46:52;2.20;99.90
23083;DHT22;11709;52.420;10.538;2023-03-09T09:55:13;2.20;99.90
23083;DHT22;11709;52.420;10.538;2023-03-09T09:59:19;2.30;99.90
23083;DHT22;11709;52.420;10.538;2023-03-09T10:07:31;2.30;99.90
23083;DHT22;11709;52.420;10.538;2023-03-09T10:11:36;2.30;99.90
23083;DHT22;11709;52.420;10.538;2023-03-09T10:15:38;2.40;99.90
23083;DHT22;11709;52.420;10.538;2023-03-09T10:19:40;2.50;99.90
23083;DHT22;11709;52.420;10.538;2023-03-09T10:23:42;2.60;99.90
23083;DHT22;11709;52.420;10.538;2023-03-09T10:27:55;2.60;99.90
23083;DHT22;11709;52.420;10.538;2023-03-09T10:31:59;2.70;99.90
23083;DHT22;11709;52.420;10.538;2023-03-09T10:36:05;2.80;99.90
23083;DHT22;11709;52.420;10.538;2023-03-09T10:40:13;2.80;99.90
23083;DHT22;11709;52.420;10.538;2023-03-09T10:44:12;2.80;99.90
23083;DHT22;11709;52.420;10.538;2023-03-09T10:48:24;2.70;99.90
23083;DHT22;11709;52.420;10.538;2023-03-09T10:52:26;2.70;99.90
23083;DHT22;11709;52.420;10.538;2023-03-09T10:56:29;2.80;99.90
23083;DHT22;11709;52.420;10.538;2023-03-09T11:00:31;2.90;99.90
23083;DHT22;11709;52.420;10.538;2023-03-09T11:04:34;3.00;99.90
23083;DHT22;11709;52.420;10.538;2023-03-09T11:08:37;3.10;99.90
23083;DHT22;11709;52.420;10.538;2023-03-09T11:12:39;3.00;99.90
23083;DHT22;11709;52.420;10.538;2023-03-09T11:16:48;3.00;99.90
23083;DHT22;11709;52.420;10.538;2023-03-09T11:20:45;3.00;99.90
23083;DHT22;11709;52.420;10.538;2023-03-09T11:24:50;3.00;99.90
23083;DHT22;11709;52.420;10.538;2023-03-09T11:33:07;3.00;99.90
23083;DHT22;11709;52.420;10.538;2023-03-09T11:37:18;3.10;99.90
23083;DHT22;11709;52.420;10.538;2023-03-09T11:41:27;3.10;99.90
23083;DHT22;11709;52.420;10.538;2023-03-09T11:45:27;3.10;99.90
23083;DHT22;11709;52.420;10.538;2023-03-09T11:49:30;3.10;99.90
23083;DHT22;11709;52.420;10.538;2023-03-09T11:53:37;3.10;99.90
23083;DHT22;11709;52.420;10.538;2023-03-09T11:57:39;3.10;99.90
23083;DHT22;11709;52.420;10.538;2023-03-09T12:05:51;3.20;99.90
23083;DHT22;11709;52.420;10.538;2023-03-09T12:10:01;3.10;99.90
23083;DHT22;11709;52.420;10.538;2023-03-09T12:14:03;3.10;99.90
23083;DHT22;11709;52.420;10.538;2023-03-09T12:18:05;3.10;99.90
23083;DHT22;11709;52.420;10.538;2023-03-09T12:22:18;3.20;99.90
23083;DHT22;11709;52.420;10.538;2023-03-09T12:30:30;3.20;99.90
23083;DHT22;11709;52.420;10.538;2023-03-09T12:34:38;3.20;99.90
23083;DHT22;11709;52.420;10.538;2023-03-09T12:38:34;3.20;99.90
23083;DHT22;11709;52.420;10.538;2023-03-09T12:42:36;3.20;99.90
23083;DHT22;11709;52.420;10.538;2023-03-09T12:46:49;3.30;99.90
23083;DHT22;11709;52.420;10.538;2023-03-09T12:51:17;3.30;99.90
23083;DHT22;11709;52.420;10.538;2023-03-09T12:55:02;3.20;99.90
23083;DHT22;11709;52.420;10.538;2023-03-09T12:59:00;3.10;99.90
23083;DHT22;11709;52.420;10.538;2023-03-09T13:03:13;3.10;99.90
23083;DHT22;11709;52.420;10.538;2023-03-09T13:07:13;3.20;99.90
23083;DHT22;11709;52.420;10.538;2023-03-09T13:15:33;3.20;99.90
23083;DHT22;11709;52.420;10.538;2023-03-09T13:19:39;3.10;99.90
23083;DHT22;11709;52.420;10.538;2023-03-09T13:23:41;2.90;99.90
23083;DHT22;11709;52.420;10.538;2023-03-09T13:27:44;3.00;99.90
23083;DHT22;11709;52.420;10.538;2023-03-09T13:31:47;3.00;99.90
23083;DHT22;11709;52.420;10.538;2023-03-09T13:35:53;3.10;99.90
23083;DHT22;11709;52.420;10.538;2023-03-09T13:39:59;3.10;99.90
23083;DHT22;11709;52.420;10.538;2023-03-09T13:44:01;3.20;99.90
23083;DHT22;11709;52.420;10.538;2023-03-09T13:48:04;3.20;99.90
23083;DHT22;11709;52.420;10.538;2023-03-09T13:52:12;3.10;99.90
23083;DHT22;11709;52.420;10.538;2023-03-09T13:56:12;3.20;99.90
23083;DHT22;11709;52.420;10.538;2023-03-09T14:00:17;3.10;99.90
23083;DHT22;11709;52.420;10.538;2023-03-09T14:04:20;3.10;99.90
23083;DHT22;11709;52.420;10.538;2023-03-09T14:08:23;3.00;99.90
23083;DHT22;11709;52.420;10.538;2023-03-09T14:12:32;3.10;99.90
23083;DHT22;11709;52.420;10.538;2023-03-09T14:16:36;3.10;99.90
23083;DHT22;11709;52.420;10.538;2023-03-09T14:20:38;3.10;99.90
23083;DHT22;11709;52.420;10.538;2023-03-09T14:24:41;3.00;99.90
23083;DHT22;11709;52.420;10.538;2023-03-09T14:28:56;3.00;99.90
23083;DHT22;11709;52.420;10.538;2023-03-09T14:32:56;3.00;99.90
23083;DHT22;11709;52.420;10.538;2023-03-09T14:36:59;2.90;99.90
23083;DHT22;11709;52.420;10.538;2023-03-09T14:41:03;3.00;99.90
23083;DHT22;11709;52.420;10.538;2023-03-09T14:45:08;3.00;99.90
23083;DHT22;11709;52.420;10.538;2023-03-09T14:49:12;3.00;99.90
23083;DHT22;11709;52.420;10.538;2023-03-09T14:53:14;3.00;99.90
23083;DHT22;11709;52.420;10.538;2023-03-09T14:57:16;3.00;99.90
23083;DHT22;11709;52.420;10.538;2023-03-09T15:01:18;3.00;99.90
23083;DHT22;11709;52.420;10.538;2023-03-09T15:05:21;3.00;99.90
23083;DHT22;11709;52.420;10.538;2023-03-09T15:09:24;3.00;99.90
23083;DHT22;11709;52.420;10.538;2023-03-09T15:13:26;2.80;99.90
23083;DHT22;11709;52.420;10.538;2023-03-09T15:17:27;2.80;99.90
23083;DHT22;11709;52.420;10.538;2023-03-09T15:21:29;2.90;99.90
23083;DHT22;11709;52.420;10.538;2023-03-09T15:25:34;2.90;99.90
23083;DHT22;11709;52.420;10.538;2023-03-09T15:29:36;2.90;99.90
23083;DHT22;11709;52.420;10.538;2023-03-09T15:33:38;2.80;99.90
23083;DHT22;11709;52.420;10.538;2023-03-09T15:37:40;2.90;99.90
23083;DHT22;11709;52.420;10.538;2023-03-09T15:41:43;2.90;99.90
23083;DHT22;11709;52.420;10.538;2023-03-09T15:45:45;2.80;99.90
23083;DHT22;11709;52.420;10.538;2023-03-09T15:49:47;2.80;99.90
23083;DHT22;11709;52.420;10.538;2023-03-09T15:53:48;2.70;99.90
23083;DHT22;11709;52.420;10.538;2023-03-09T15:57:50;2.70;99.90
23083;DHT22;11709;52.420;10.538;2023-03-09T16:01:52;2.70;99.90
23083;DHT22;11709;52.420;10.538;2023-03-09T16:05:54;2.70;99.90
23083;DHT22;11709;52.420;10.538;2023-03-09T16:09:56;2.70;99.90
23083;DHT22;11709;52.420;10.538;2023-03-09T16:13:58;2.60;99.90
23083;DHT22;11709;52.420;10.538;2023-03-09T16:18:00;2.50;99.90
23083;DHT22;11709;52.420;10.538;2023-03-09T16:22:02;2.50;99.90
23083;DHT22;11709;52.420;10.538;2023-03-09T16:26:04;2.40;99.90
23083;DHT22;11709;52.420;10.538;2023-03-09T16:30:06;2.40;99.90
23083;DHT22;11709;52.420;10.538;2023-03-09T16:34:08;2.40;99.90
23083;DHT22;11709;52.420;10.538;2023-03-09T16:38:10;2.30;99.90
23083;DHT22;11709;52.420;10.538;2023-03-09T16:42:12;2.30;99.90
23083;DHT22;11709;52.420;10.538;2023-03-09T16:46:18;2.30;99.90
23083;DHT22;11709;52.420;10.538;2023-03-09T16:50:21;2.20;99.90
23083;DHT22;11709;52.420;10.538;2023-03-09T16:54:23;2.20;99.90
23083;DHT22;11709;52.420;10.538;2023-03-09T16:58:25;2.20;99.90
23083;DHT22;11709;52.420;10.538;2023-03-09T17:02:27;2.10;99.90
23083;DHT22;11709;52.420;10.538;2023-03-09T17:06:30;2.10;99.90
23083;DHT22;11709;52.420;10.538;2023-03-09T17:10:32;2.00;99.90
23083;DHT22;11709;52.420;10.538;2023-03-09T17:14:33;2.00;99.90
23083;DHT22;11709;52.420;10.538;2023-03-09T17:18:35;2.00;99.90
23083;DHT22;11709;52.420;10.538;2023-03-09T17:22:37;2.00;99.90
23083;DHT22;11709;52.420;10.538;2023-03-09T17:26:39;1.90;99.90
23083;DHT22;11709;52.420;10.538;2023-03-09T17:30:41;1.80;99.90
23083;DHT22;11709;52.420;10.538;2023-03-09T17:34:43;1.80;99.90
23083;DHT22;11709;52.420;10.538;2023-03-09T17:38:46;1.80;99.90
23083;DHT22;11709;52.420;10.538;2023-03-09T17:42:48;1.70;99.90
23083;DHT22;11709;52.420;10.538;2023-03-09T17:46:50;1.80;99.90
23083;DHT22;11709;52.420;10.538;2023-03-09T17:50:55;1.70;99.90
23083;DHT22;11709;52.420;10.538;2023-03-09T17:54:57;1.80;99.90
23083;DHT22;11709;52.420;10.538;2023-03-09T17:58:59;1.80;99.90
23083;DHT22;11709;52.420;10.538;2023-03-09T18:03:01;1.70;99.90
23083;DHT22;11709;52.420;10.538;2023-03-09T18:07:04;1.70;99.90
23083;DHT22;11709;52.420;10.538;2023-03-09T18:11:14;1.70;99.90
23083;DHT22;11709;52.420;10.538;2023-03-09T18:15:13;1.60;99.90
23083;DHT22;11709;52.420;10.538;2023-03-09T18:19:14;1.60;99.90
23083;DHT22;11709;52.420;10.538;2023-03-09T18:23:16;3.10;99.90
23083;DHT22;11709;52.420;10.538;2023-03-09T18:27:18;1.60;99.90
23083;DHT22;11709;52.420;10.538;2023-03-09T18:31:20;1.60;99.90
23083;DHT22;11709;52.420;10.538;2023-03-09T18:35:22;1.60;99.90
23083;DHT22;11709;52.420;10.538;2023-03-09T18:39:23;1.60;99.90
23083;DHT22;11709;52.420;10.538;2023-03-09T18:43:25;1.60;99.90
23083;DHT22;11709;52.420;10.538;2023-03-09T18:47:27;1.60;99.90
23083;DHT22;11709;52.420;10.538;2023-03-09T18:51:29;1.60;99.90
23083;DHT22;11709;52.420;10.538;2023-03-09T18:55:31;1.50;99.90
23083;DHT22;11709;52.420;10.538;2023-03-09T18:59:33;1.50;99.90
23083;DHT22;11709;52.420;10.538;2023-03-09T19:03:35;1.60;99.90
23083;DHT22;11709;52.420;10.538;2023-03-09T19:07:37;1.60;99.90
23083;DHT22;11709;52.420;10.538;2023-03-09T19:11:38;1.50;99.90
23083;DHT22;11709;52.420;10.538;2023-03-09T19:15:41;1.50;99.90
23083;DHT22;11709;52.420;10.538;2023-03-09T19:19:47;1.50;99.90
23083;DHT22;11709;52.420;10.538;2023-03-09T19:23:49;1.50;99.90
23083;DHT22;11709;52.420;10.538;2023-03-09T19:27:51;1.60;99.90
23083;DHT22;11709;52.420;10.538;2023-03-09T19:31:53;1.50;99.90
23083;DHT22;11709;52.420;10.538;2023-03-09T19:35:56;1.50;99.90
23083;DHT22;11709;52.420;10.538;2023-03-09T19:39:58;1.50;99.90
23083;DHT22;11709;52.420;10.538;2023-03-09T19:43:59;1.60;99.90
23083;DHT22;11709;52.420;10.538;2023-03-09T19:48:01;1.60;99.90
23083;DHT22;11709;52.420;10.538;2023-03-09T19:52:04;1.50;99.90
23083;DHT22;11709;52.420;10.538;2023-03-09T19:56:28;1.50;99.90
23083;DHT22;11709;52.420;10.538;2023-03-09T20:00:09;1.50;99.90
23083;DHT22;11709;52.420;10.538;2023-03-09T20:04:12;1.40;99.90
23083;DHT22;11709;52.420;10.538;2023-03-09T20:08:14;1.50;99.90
23083;DHT22;11709;52.420;10.538;2023-03-09T20:12:16;1.50;99.90
23083;DHT22;11709;52.420;10.538;2023-03-09T20:16:20;1.50;99.90
23083;DHT22;11709;52.420;10.538;2023-03-09T20:20:22;1.50;99.90
23083;DHT22;11709;52.420;10.538;2023-03-09T20:24:24;1.50;99.90
23083;DHT22;11709;52.420;10.538;2023-03-09T20:28:26;1.50;99.90
23083;DHT22;11709;52.420;10.538;2023-03-09T20:32:28;1.50;99.90
23083;DHT22;11709;52.420;10.538;2023-03-09T20:36:30;1.60;99.90
23083;DHT22;11709;52.420;10.538;2023-03-09T20:40:33;1.60;99.90
23083;DHT22;11709;52.420;10.538;2023-03-09T20:44:35;1.50;99.90
23083;DHT22;11709;52.420;10.538;2023-03-09T20:48:37;1.50;99.90
23083;DHT22;11709;52.420;10.538;2023-03-09T20:52:38;1.50;99.90
23083;DHT22;11709;52.420;10.538;2023-03-09T20:56:40;1.40;99.90
23083;DHT22;11709;52.420;10.538;2023-03-09T21:00:42;1.40;99.90
23083;DHT22;11709;52.420;10.538;2023-03-09T21:04:44;1.50;99.90
23083;DHT22;11709;52.420;10.538;2023-03-09T21:08:48;1.50;99.90
23083;DHT22;11709;52.420;10.538;2023-03-09T21:12:49;1.50;99.90
23083;DHT22;11709;52.420;10.538;2023-03-09T21:16:51;1.50;99.90
23083;DHT22;11709;52.420;10.538;2023-03-09T21:20:55;1.50;99.90
23083;DHT22;11709;52.420;10.538;2023-03-09T21:24:57;1.50;99.90
23083;DHT22;11709;52.420;10.538;2023-03-09T21:28:59;1.40;99.90
23083;DHT22;11709;52.420;10.538;2023-03-09T21:33:01;1.40;99.90
23083;DHT22;11709;52.420;10.538;2023-03-09T21:37:03;1.40;99.90
23083;DHT22;11709;52.420;10.538;2023-03-09T21:41:05;1.40;99.90
23083;DHT22;11709;52.420;10.538;2023-03-09T21:45:09;1.40;99.90
23083;DHT22;11709;52.420;10.538;2023-03-09T21:49:11;1.40;99.90
23083;DHT22;11709;52.420;10.538;2023-03-09T21:53:12;1.40;99.90
23083;DHT22;11709;52.420;10.538;2023-03-09T21:57:14;1.50;99.90
23083;DHT22;11709;52.420;10.538;2023-03-09T22:01:17;1.40;99.90
23083;DHT22;11709;52.420;10.538;2023-03-09T22:05:19;1.40;99.90
23083;DHT22;11709;52.420;10.538;2023-03-09T22:09:21;1.40;99.90
23083;DHT22;11709;52.420;10.538;2023-03-09T22:13:23;1.50;99.90
23083;DHT22;11709;52.420;10.538;2023-03-09T22:17:25;1.50;99.90
23083;DHT22;11709;52.420;10.538;2023-03-09T22:21:27;1.40;99.90
23083;DHT22;11709;52.420;10.538;2023-03-09T22:25:29;1.40;99.90
23083;DHT22;11709;52.420;10.538;2023-03-09T22:29:31;1.40;99.90
23083;DHT22;11709;52.420;10.538;2023-03-09T22:33:32;1.40;99.90
23083;DHT22;11709;52.420;10.538;2023-03-09T22:37:34;1.50;99.90
23083;DHT22;11709;52.420;10.538;2023-03-09T22:41:37;1.50;99.90
23083;DHT22;11709;52.420;10.538;2023-03-09T22:45:38;1.50;99.90
23083;DHT22;11709;52.420;10.538;2023-03-09T22:49:40;1.50;99.90
23083;DHT22;11709;52.420;10.538;2023-03-09T22:53:42;1.40;99.90
23083;DHT22;11709;52.420;10.538;2023-03-09T22:57:46;1.40;99.90
23083;DHT22;11709;52.420;10.538;2023-03-09T23:01:48;1.40;99.90
23083;DHT22;11709;52.420;10.538;2023-03-09T23:05:49;1.30;99.90
23083;DHT22;11709;52.420;10.538;2023-03-09T23:09:52;1.30;99.90
23083;DHT22;11709;52.420;10.538;2023-03-09T23:13:54;1.30;99.90
23083;DHT22;11709;52.420;10.538;2023-03-09T23:17:56;1.40;99.90
23083;DHT22;11709;52.420;10.538;2023-03-09T23:21:58;1.30;99.90
23083;DHT22;11709;52.420;10.538;2023-03-09T23:25:59;1.30;99.90
23083;DHT22;11709;52.420;10.538;2023-03-09T23:30:01;1.40;99.90
23083;DHT22;11709;52.420;10.538;2023-03-09T23:34:03;1.40;99.90
23083;DHT22;11709;52.420;10.538;2023-03-09T23:38:08;1.40;99.90
23083;DHT22;11709;52.420;10.538;2023-03-09T23:42:11;1.40;99.90
23083;DHT22;11709;52.420;10.538;2023-03-09T23:46:14;1.40;99.90
23083;DHT22;11709;52.420;10.538;2023-03-09T23:50:16;1.40;99.90
23083;DHT22;11709;52.420;10.538;2023-03-09T23:54:17;1.40;99.90
23083;DHT22;11709;52.420;10.538;2023-03-09T23:58:19;1.40;99.90
